createdAt,value
2022-08-28T00:01:04.137Z,1.30
2022-08-28T00:03:32.414Z,1.40
2022-08-28T00:06:00.291Z,1.38
2022-08-28T00:08:27.593Z,1.27
2022-08-28T00:10:54.945Z,1.55
2022-08-28T00:13:25.304Z,1.63
2022-08-28T00:16:00.959Z,1.38
2022-08-28T00:18:31.261Z,1.55
2022-08-28T00:21:06.445Z,1.80
2022-08-28T00:23:42.339Z,1.33
2022-08-28T00:26:31.886Z,1.60
2022-08-28T00:28:58.812Z,1.55
2022-08-28T00:31:26.098Z,1.67
2022-08-28T00:33:53.306Z,1.50
2022-08-28T00:36:20.270Z,1.90
2022-08-28T00:38:47.191Z,1.77
2022-08-28T00:41:15.158Z,1.63
2022-08-28T00:43:46.856Z,1.80
2022-08-28T00:46:23.669Z,2.08
2022-08-28T00:48:51.091Z,1.90
2022-08-28T00:51:39.330Z,1.88
2022-08-28T00:54:08.552Z,1.58
2022-08-28T00:56:38.660Z,1.80
2022-08-28T00:59:11.805Z,1.88
2022-08-28T01:01:39.279Z,2.00
2022-08-28T01:04:06.920Z,2.10
2022-08-28T01:06:36.587Z,2.08
2022-08-28T01:09:05.660Z,2.20
2022-08-28T01:11:33.886Z,1.98
2022-08-28T01:14:05.344Z,2.25
2022-08-28T01:16:33.750Z,2.30
2022-08-28T01:19:05.996Z,2.33
2022-08-28T01:21:40.044Z,2.28
2022-08-28T01:24:14.721Z,2.60
2022-08-28T01:26:42.299Z,2.63
2022-08-28T01:29:11.579Z,2.25
2022-08-28T01:31:40.564Z,1.67
2022-08-28T01:34:12.912Z,2.15
2022-08-28T01:36:41.554Z,2.42
2022-08-28T01:39:21.082Z,2.53
2022-08-28T01:41:52.118Z,2.10
2022-08-28T01:44:25.234Z,2.60
2022-08-28T01:46:56.324Z,2.55
2022-08-28T01:49:24.841Z,2.53
2022-08-28T01:51:52.346Z,2.17
2022-08-28T01:54:21.760Z,2.22
2022-08-28T01:56:49.031Z,2.38
2022-08-28T01:59:16.292Z,2.75
2022-08-28T02:01:43.937Z,2.45
2022-08-28T02:04:11.859Z,2.42
2022-08-28T02:06:39.342Z,2.50
2022-08-28T02:09:14.649Z,2.80
2022-08-28T02:11:44.397Z,2.88
2022-08-28T02:14:14.001Z,2.60
2022-08-28T02:16:40.909Z,2.60
2022-08-28T02:19:07.829Z,2.40
2022-08-28T02:21:35.541Z,2.65
2022-08-28T02:24:03.223Z,3.10
2022-08-28T02:26:31.767Z,2.45
2022-08-28T02:28:59.180Z,2.65
2022-08-28T02:31:27.584Z,2.70
2022-08-28T02:33:55.563Z,2.53
2022-08-28T02:36:23.516Z,2.72
2022-08-28T02:38:57.443Z,2.47
2022-08-28T02:41:25.838Z,2.83
2022-08-28T02:43:53.277Z,2.85
2022-08-28T02:46:20.414Z,3.10
2022-08-28T02:48:47.555Z,2.53
2022-08-28T02:51:15.120Z,2.55
2022-08-28T02:53:43.002Z,3.10
2022-08-28T02:56:10.774Z,3.28
2022-08-28T02:58:39.685Z,2.42
2022-08-28T03:01:11.049Z,2.63
2022-08-28T03:03:40.968Z,2.78
2022-08-28T03:06:12.624Z,2.38
2022-08-28T03:08:43.951Z,2.65
2022-08-28T03:11:12.115Z,2.88
2022-08-28T03:13:39.162Z,2.72
2022-08-28T03:16:07.300Z,3.17
2022-08-28T03:18:34.246Z,2.65
2022-08-28T03:21:01.876Z,2.67
2022-08-28T03:23:30.044Z,2.70
2022-08-28T03:26:06.090Z,2.47
2022-08-28T03:28:48.233Z,2.75
2022-08-28T03:31:25.763Z,2.63
2022-08-28T03:33:57.537Z,2.22
2022-08-28T03:36:33.017Z,2.70
2022-08-28T03:39:02.298Z,2.72
2022-08-28T03:41:31.297Z,2.63
2022-08-28T03:44:00.655Z,2.83
2022-08-28T03:46:32.972Z,2.63
2022-08-28T03:49:02.321Z,2.70
2022-08-28T03:51:32.882Z,2.33
2022-08-28T03:54:01.240Z,2.47
2022-08-28T03:56:30.861Z,2.50
2022-08-28T03:59:01.185Z,2.50
2022-08-28T04:01:28.565Z,2.40
2022-08-28T04:03:56.414Z,2.58
2022-08-28T04:06:24.654Z,2.60
2022-08-28T04:08:51.770Z,2.50
2022-08-28T04:11:19.005Z,2.67
2022-08-28T04:13:46.121Z,2.30
2022-08-28T04:16:18.982Z,2.72
2022-08-28T04:18:49.241Z,2.70
2022-08-28T04:21:28.945Z,2.50
2022-08-28T04:23:56.386Z,2.40
2022-08-28T04:26:26.120Z,2.22
2022-08-28T04:28:55.270Z,2.72
2022-08-28T04:31:31.760Z,2.25
2022-08-28T04:34:06.485Z,2.20
2022-08-28T04:36:33.796Z,2.45
2022-08-28T04:39:08.675Z,2.22
2022-08-28T04:41:39.068Z,2.70
2022-08-28T04:44:07.323Z,2.70
2022-08-28T04:46:34.855Z,2.38
2022-08-28T04:49:04.310Z,2.90
2022-08-28T04:51:32.524Z,2.50
2022-08-28T04:54:03.706Z,2.85
2022-08-28T04:56:30.739Z,2.45
2022-08-28T04:59:00.300Z,2.67
2022-08-28T05:01:27.526Z,2.67
2022-08-28T05:04:02.258Z,2.70
2022-08-28T05:06:32.660Z,2.63
2022-08-28T05:09:03.432Z,2.60
2022-08-28T05:11:34.058Z,2.38
2022-08-28T05:14:11.536Z,2.38
2022-08-28T05:16:51.398Z,2.47
2022-08-28T05:19:20.212Z,2.78
2022-08-28T05:21:48.130Z,2.58
2022-08-28T05:24:15.118Z,2.70
2022-08-28T05:26:42.737Z,2.45
2022-08-28T05:29:11.584Z,2.90
2022-08-28T05:31:41.486Z,2.30
2022-08-28T05:34:10.313Z,2.42
2022-08-28T05:36:39.243Z,2.50
2022-08-28T05:39:10.527Z,2.72
2022-08-28T05:41:41.264Z,2.50
2022-08-28T05:44:13.111Z,2.78
2022-08-28T05:46:44.383Z,2.53
2022-08-28T05:49:13.525Z,2.63
2022-08-28T05:51:42.630Z,2.50
2022-08-28T05:54:10.699Z,3.00
2022-08-28T05:56:40.638Z,2.65
2022-08-28T05:59:09.635Z,2.25
2022-08-28T06:01:42.209Z,2.78
2022-08-28T06:04:25.235Z,2.00
2022-08-28T06:06:53.252Z,2.47
2022-08-28T06:09:29.799Z,2.67
2022-08-28T06:12:00.901Z,2.35
2022-08-28T06:14:29.911Z,2.60
2022-08-28T06:16:57.570Z,2.83
2022-08-28T06:19:29.127Z,2.78
2022-08-28T06:21:59.897Z,2.50
2022-08-28T06:24:29.650Z,2.55
2022-08-28T06:26:59.058Z,2.60
2022-08-28T06:29:27.778Z,2.60
2022-08-28T06:32:00.228Z,2.38
2022-08-28T06:34:29.520Z,2.55
2022-08-28T06:36:56.488Z,2.17
2022-08-28T06:39:23.793Z,2.55
2022-08-28T06:41:51.669Z,2.47
2022-08-28T06:44:21.647Z,2.35
2022-08-28T06:46:52.703Z,2.38
2022-08-28T06:49:20.022Z,2.53
2022-08-28T06:51:47.312Z,2.50
2022-08-28T06:54:22.230Z,2.35
2022-08-28T06:56:51.136Z,2.58
2022-08-28T06:59:18.167Z,2.38
2022-08-28T07:01:45.344Z,2.10
2022-08-28T07:04:14.524Z,2.60
2022-08-28T07:06:54.593Z,2.25
2022-08-28T07:09:23.251Z,2.30
2022-08-28T07:11:51.034Z,1.98
2022-08-28T07:14:18.073Z,2.30
2022-08-28T07:16:45.045Z,2.55
2022-08-28T07:19:13.495Z,2.30
2022-08-28T07:21:45.833Z,1.85
2022-08-28T07:24:15.338Z,2.22
2022-08-28T07:26:44.990Z,2.28
2022-08-28T07:29:13.029Z,2.10
2022-08-28T07:31:44.455Z,2.28
2022-08-28T07:34:13.836Z,1.88
2022-08-28T07:36:42.093Z,2.38
2022-08-28T07:39:11.461Z,1.92
2022-08-28T07:41:42.329Z,2.42
2022-08-28T07:44:32.014Z,2.03
2022-08-28T07:47:04.503Z,2.72
2022-08-28T07:49:33.649Z,2.50
2022-08-28T07:52:01.143Z,2.05
2022-08-28T07:54:28.119Z,1.95
2022-08-28T07:56:55.103Z,2.10
2022-08-28T07:59:22.278Z,2.30
2022-08-28T08:01:51.606Z,1.90
2022-08-28T08:04:23.417Z,2.00
2022-08-28T08:06:57.811Z,2.38
2022-08-28T08:09:25.371Z,2.20
2022-08-28T08:11:53.133Z,2.38
2022-08-28T08:14:23.002Z,2.28
2022-08-28T08:16:51.690Z,1.92
2022-08-28T08:19:20.302Z,2.20
2022-08-28T08:21:55.086Z,2.25
2022-08-28T08:24:28.456Z,2.65
2022-08-28T08:27:00.873Z,2.20
2022-08-28T08:29:36.038Z,1.92
2022-08-28T08:32:09.208Z,2.17
2022-08-28T08:34:42.323Z,2.03
2022-08-28T08:37:15.592Z,2.10
2022-08-28T08:39:46.025Z,2.03
2022-08-28T08:42:29.272Z,2.22
2022-08-28T08:45:00.472Z,1.90
2022-08-28T08:47:51.513Z,2.08
2022-08-28T08:50:29.941Z,2.10
2022-08-28T08:53:29.448Z,2.05
2022-08-28T08:55:58.261Z,1.90
2022-08-28T08:58:31.807Z,1.88
2022-08-28T09:01:32.307Z,2.28
2022-08-28T09:04:39.913Z,2.13
2022-08-28T09:07:51.381Z,1.90
2022-08-28T09:10:20.051Z,2.08
2022-08-28T09:13:06.420Z,2.05
2022-08-28T09:15:42.566Z,2.00
2022-08-28T09:18:23.527Z,1.92
2022-08-28T09:20:54.276Z,2.30
2022-08-28T09:23:29.899Z,1.90
2022-08-28T09:26:01.812Z,1.50
2022-08-28T09:28:40.828Z,1.98
2022-08-28T09:31:32.999Z,2.20
2022-08-28T09:34:31.896Z,1.90
2022-08-28T09:37:03.337Z,1.90
2022-08-28T09:39:33.615Z,1.98
2022-08-28T09:42:33.852Z,1.70
2022-08-28T09:45:23.863Z,1.75
2022-08-28T09:48:03.036Z,1.52
2022-08-28T09:50:38.054Z,1.92
2022-08-28T09:53:13.748Z,1.90
2022-08-28T09:56:11.592Z,2.00
2022-08-28T09:58:51.837Z,1.90
2022-08-28T10:01:37.456Z,2.00
2022-08-28T10:04:38.212Z,2.00
2022-08-28T10:07:18.936Z,1.88
2022-08-28T10:10:21.344Z,2.10
2022-08-28T10:13:14.792Z,2.00
2022-08-28T10:15:43.479Z,2.10
2022-08-28T10:18:28.911Z,2.03
2022-08-28T10:21:18.835Z,1.70
2022-08-28T10:24:32.448Z,1.77
2022-08-28T10:27:18.362Z,1.58
2022-08-28T10:30:12.379Z,2.10
2022-08-28T10:32:58.375Z,1.85
2022-08-28T10:35:37.623Z,1.60
2022-08-28T10:38:16.204Z,1.80
2022-08-28T10:41:08.627Z,1.92
2022-08-28T10:43:45.971Z,1.45
2022-08-28T10:46:37.107Z,1.50
2022-08-28T10:49:21.441Z,1.48
2022-08-28T10:51:57.196Z,1.40
2022-08-28T10:55:01.407Z,1.40
2022-08-28T10:57:57.788Z,1.60
2022-08-28T11:00:31.478Z,1.83
2022-08-28T11:03:32.864Z,1.67
2022-08-28T11:06:26.344Z,1.40
2022-08-28T11:09:24.889Z,1.83
2022-08-28T11:12:02.644Z,1.63
2022-08-28T11:14:47.929Z,1.50
2022-08-28T11:17:25.367Z,1.40
2022-08-28T11:20:24.876Z,1.60
2022-08-28T11:23:17.576Z,1.73
2022-08-28T11:25:55.205Z,1.83
2022-08-28T11:28:25.749Z,1.70
2022-08-28T11:31:01.901Z,1.65
2022-08-28T11:33:52.512Z,1.42
2022-08-28T11:36:22.605Z,1.48
2022-08-28T11:38:53.022Z,1.77
2022-08-28T11:41:27.539Z,1.90
2022-08-28T11:44:09.590Z,1.38
2022-08-28T11:46:53.302Z,1.40
2022-08-28T11:49:26.417Z,1.45
2022-08-28T11:52:44.109Z,1.73
2022-08-28T11:55:43.150Z,1.58
2022-08-28T11:59:00.813Z,1.48
2022-08-28T12:01:39.316Z,1.65
2022-08-28T12:04:42.687Z,1.30
2022-08-28T12:07:12.650Z,1.52
2022-08-28T12:09:48.819Z,1.58
2022-08-28T12:12:21.822Z,1.60
2022-08-28T12:14:48.749Z,1.80
2022-08-28T12:17:31.498Z,1.70
2022-08-28T12:20:22.888Z,1.50
2022-08-28T12:22:54.283Z,1.70
2022-08-28T12:25:40.522Z,1.73
2022-08-28T12:28:36.929Z,1.40
2022-08-28T12:31:55.200Z,1.65
2022-08-28T12:34:59.935Z,1.50
2022-08-28T12:37:52.215Z,1.63
2022-08-28T12:40:29.503Z,1.40
2022-08-28T12:43:10.026Z,1.50
2022-08-28T12:46:04.108Z,1.40
2022-08-28T12:48:54.296Z,1.77
2022-08-28T12:51:31.156Z,1.65
2022-08-28T12:54:04.952Z,1.52
2022-08-28T12:56:38.868Z,1.30
2022-08-28T12:59:45.027Z,1.40
2022-08-28T13:02:34.978Z,1.55
2022-08-28T13:05:11.134Z,1.58
2022-08-28T13:07:49.158Z,1.67
2022-08-28T13:10:26.632Z,1.40
2022-08-28T13:13:24.866Z,1.58
2022-08-28T13:16:00.867Z,1.65
2022-08-28T13:19:06.884Z,1.42
2022-08-28T13:21:55.434Z,1.70
2022-08-28T13:24:22.896Z,1.50
2022-08-28T13:27:02.821Z,1.65
2022-08-28T13:29:33.833Z,1.60
2022-08-28T13:32:06.843Z,1.65
2022-08-28T13:34:37.705Z,1.35
2022-08-28T13:37:30.450Z,1.52
2022-08-28T13:39:57.657Z,1.60
2022-08-28T13:42:24.836Z,1.60
2022-08-28T13:44:56.961Z,1.50
2022-08-28T13:47:27.454Z,1.75
2022-08-28T13:49:54.434Z,1.17
2022-08-28T13:52:21.505Z,1.55
2022-08-28T13:54:48.925Z,1.35
2022-08-28T13:57:16.145Z,1.45
2022-08-28T13:59:43.397Z,1.67
2022-08-28T14:02:33.246Z,1.83
2022-08-28T14:05:01.809Z,1.58
2022-08-28T14:07:29.525Z,1.58
2022-08-28T14:09:56.723Z,1.85
2022-08-28T14:12:33.016Z,1.55
2022-08-28T14:15:02.108Z,1.42
2022-08-28T14:17:29.492Z,1.40
2022-08-28T14:20:00.319Z,1.80
2022-08-28T14:22:27.901Z,1.48
2022-08-28T14:24:55.067Z,1.42
2022-08-28T14:27:22.003Z,1.40
2022-08-28T14:29:49.110Z,1.38
2022-08-28T14:32:16.272Z,1.40
2022-08-28T14:34:43.846Z,1.20
2022-08-28T14:37:11.244Z,1.30
2022-08-28T14:39:38.176Z,1.42
2022-08-28T14:42:13.067Z,1.40
2022-08-28T14:44:40.412Z,1.35
2022-08-28T14:47:09.324Z,1.88
2022-08-28T14:49:36.424Z,1.27
2022-08-28T14:52:04.726Z,1.13
2022-08-28T14:54:32.028Z,1.70
2022-08-28T14:56:59.099Z,1.40
2022-08-28T14:59:29.736Z,1.63
2022-08-28T15:02:00.210Z,1.33
2022-08-28T15:04:35.331Z,1.67
2022-08-28T15:07:08.128Z,1.30
2022-08-28T15:09:39.431Z,1.05
2022-08-28T15:12:07.104Z,1.20
2022-08-28T15:14:35.925Z,1.00
2022-08-28T15:17:03.773Z,1.42
2022-08-28T15:19:30.854Z,1.58
2022-08-28T15:21:59.298Z,1.60
2022-08-28T15:24:31.978Z,1.35
2022-08-28T15:27:00.328Z,1.27
2022-08-28T15:29:30.793Z,1.10
2022-08-28T15:31:59.072Z,1.30
2022-08-28T15:34:28.451Z,1.60
2022-08-28T15:36:58.092Z,1.48
2022-08-28T15:39:47.340Z,1.23
2022-08-28T15:42:18.453Z,1.17
2022-08-28T15:44:45.750Z,1.35
2022-08-28T15:47:16.462Z,1.25
2022-08-28T15:49:48.609Z,1.30
2022-08-28T15:52:18.739Z,1.15
2022-08-28T15:54:46.072Z,1.85
2022-08-28T15:57:13.081Z,1.33
2022-08-28T15:59:49.498Z,1.55
2022-08-28T16:02:22.103Z,1.60
2022-08-28T16:04:49.391Z,1.38
2022-08-28T16:07:18.815Z,1.48
2022-08-28T16:09:46.056Z,1.42
2022-08-28T16:12:13.277Z,1.50
2022-08-28T16:14:40.279Z,1.38
2022-08-28T16:17:10.672Z,1.63
2022-08-28T16:19:40.267Z,1.55
2022-08-28T16:22:11.447Z,1.40
2022-08-28T16:24:39.041Z,0.88
2022-08-28T16:27:09.543Z,1.17
2022-08-28T16:29:40.789Z,1.55
2022-08-28T16:32:11.848Z,1.33
2022-08-28T16:34:40.005Z,1.38
2022-08-28T16:37:08.026Z,1.17
2022-08-28T16:39:36.170Z,1.38
2022-08-28T16:42:03.570Z,1.80
2022-08-28T16:44:30.596Z,1.50
2022-08-28T16:46:57.891Z,1.30
2022-08-28T16:49:25.454Z,1.50
2022-08-28T16:51:52.482Z,1.48
2022-08-28T16:54:21.789Z,1.30
2022-08-28T16:56:48.938Z,1.27
2022-08-28T16:59:21.539Z,1.52
2022-08-28T17:01:53.144Z,1.42
2022-08-28T17:04:22.128Z,1.42
2022-08-28T17:06:49.235Z,1.45
2022-08-28T17:09:16.180Z,1.38
2022-08-28T17:11:45.416Z,1.38
2022-08-28T17:14:19.649Z,1.33
2022-08-28T17:16:49.528Z,1.58
2022-08-28T17:19:17.523Z,1.40
2022-08-28T17:22:03.147Z,1.35
2022-08-28T17:24:31.117Z,1.42
2022-08-28T17:27:01.991Z,1.20
2022-08-28T17:29:31.899Z,1.50
2022-08-28T17:31:59.111Z,1.30
2022-08-28T17:34:30.137Z,1.60
2022-08-28T17:36:57.624Z,1.50
2022-08-28T17:39:25.408Z,1.48
2022-08-28T17:41:52.603Z,1.70
2022-08-28T17:44:19.726Z,1.52
2022-08-28T17:46:46.795Z,1.38
2022-08-28T17:49:15.353Z,1.35
2022-08-28T17:51:44.296Z,1.70
2022-08-28T17:54:18.715Z,1.70
2022-08-28T17:56:46.612Z,1.50
2022-08-28T17:59:14.604Z,1.75
2022-08-28T18:01:46.892Z,1.35
2022-08-28T18:04:21.677Z,1.55
2022-08-28T18:06:53.616Z,1.50
2022-08-28T18:09:22.170Z,1.20
2022-08-28T18:11:49.233Z,1.50
2022-08-28T18:14:16.725Z,1.45
2022-08-28T18:16:43.743Z,1.38
2022-08-28T18:19:11.996Z,1.50
2022-08-28T18:21:40.374Z,1.70
2022-08-28T18:24:08.743Z,1.73
2022-08-28T18:26:35.980Z,1.70
2022-08-28T18:29:03.402Z,1.48
2022-08-28T18:31:30.958Z,1.30
2022-08-28T18:33:58.113Z,1.60
2022-08-28T18:36:25.749Z,1.67
2022-08-28T18:38:53.956Z,1.60
2022-08-28T18:41:21.265Z,1.65
2022-08-28T18:43:56.026Z,1.42
2022-08-28T18:46:24.689Z,1.55
2022-08-28T18:48:54.612Z,1.80
2022-08-28T18:51:21.801Z,1.80
2022-08-28T18:53:48.895Z,1.70
2022-08-28T18:56:16.448Z,1.73
2022-08-28T18:58:43.646Z,1.60
2022-08-28T19:01:10.943Z,1.67
2022-08-28T19:03:38.024Z,1.70
2022-08-28T19:06:06.362Z,1.70
2022-08-28T19:08:35.273Z,1.77
2022-08-28T19:11:08.705Z,1.52
2022-08-28T19:13:36.710Z,1.80
2022-08-28T19:16:05.276Z,1.55
2022-08-28T19:18:32.327Z,1.60
2022-08-28T19:21:16.394Z,1.80
2022-08-28T19:23:55.253Z,1.48
2022-08-28T19:26:24.563Z,1.48
2022-08-28T19:28:51.953Z,1.60
2022-08-28T19:31:19.036Z,1.60
2022-08-28T19:33:47.641Z,1.80
2022-08-28T19:36:15.575Z,1.65
2022-08-28T19:38:46.155Z,1.40
2022-08-28T19:41:14.467Z,1.50
2022-08-28T19:43:42.984Z,1.60
2022-08-28T19:46:19.871Z,1.45
2022-08-28T19:48:51.804Z,1.83
2022-08-28T19:51:24.026Z,1.50
2022-08-28T19:53:57.901Z,1.55
2022-08-28T19:56:28.445Z,1.55
2022-08-28T19:58:58.978Z,2.00
2022-08-28T20:01:30.000Z,1.23
2022-08-28T20:03:59.762Z,1.63
2022-08-28T20:06:28.068Z,1.55
2022-08-28T20:08:55.166Z,1.30
2022-08-28T20:11:30.136Z,1.58
2022-08-28T20:14:04.806Z,1.40
2022-08-28T20:16:36.663Z,1.30
2022-08-28T20:19:07.383Z,1.60
2022-08-28T20:21:37.203Z,1.42
2022-08-28T20:24:12.131Z,1.40
2022-08-28T20:26:39.430Z,1.63
2022-08-28T20:29:09.161Z,1.65
2022-08-28T20:31:41.050Z,1.70
2022-08-28T20:34:10.762Z,1.48
2022-08-28T20:36:38.592Z,1.30
2022-08-28T20:39:09.172Z,1.85
2022-08-28T20:41:39.451Z,1.60
2022-08-28T20:44:09.339Z,1.65
2022-08-28T20:46:41.376Z,1.60
2022-08-28T20:49:12.353Z,1.50
2022-08-28T20:51:56.859Z,1.60
2022-08-28T20:54:37.243Z,1.50
2022-08-28T20:57:08.960Z,1.33
2022-08-28T20:59:40.046Z,1.30
2022-08-28T21:02:15.543Z,1.52
2022-08-28T21:04:44.603Z,1.27
2022-08-28T21:07:13.724Z,1.23
2022-08-28T21:10:05.396Z,1.40
2022-08-28T21:12:28.218Z,1.73
2022-08-28T21:14:55.522Z,1.30
2022-08-28T21:17:29.124Z,1.20
2022-08-28T21:20:00.726Z,1.70
2022-08-28T21:22:29.849Z,1.50
2022-08-28T21:24:57.166Z,1.42
2022-08-28T21:27:24.798Z,1.30
2022-08-28T21:29:55.250Z,1.30
2022-08-28T21:32:22.243Z,1.40
2022-08-28T21:34:49.151Z,1.58
2022-08-28T21:37:16.403Z,1.45
2022-08-28T21:39:43.364Z,1.52
2022-08-28T21:42:10.513Z,1.40
2022-08-28T21:44:39.357Z,1.60
2022-08-28T21:47:06.821Z,1.25
2022-08-28T21:49:33.733Z,1.40
2022-08-28T21:52:03.136Z,1.40
2022-08-28T21:54:30.541Z,1.50
2022-08-28T21:56:58.715Z,1.40
2022-08-28T21:59:26.723Z,1.20
2022-08-28T22:02:00.713Z,1.17
2022-08-28T22:04:28.145Z,1.48
2022-08-28T22:06:55.071Z,1.45
2022-08-28T22:09:22.092Z,1.33
2022-08-28T22:11:49.029Z,1.50
2022-08-28T22:14:15.989Z,1.40
2022-08-28T22:16:43.257Z,1.40
2022-08-28T22:19:10.388Z,1.45
2022-08-28T22:21:58.624Z,1.33
2022-08-28T22:24:25.545Z,1.05
2022-08-28T22:26:57.452Z,1.35
2022-08-28T22:29:25.499Z,1.40
2022-08-28T22:31:52.895Z,1.30
2022-08-28T22:34:20.258Z,1.20
2022-08-28T22:36:47.325Z,1.40
2022-08-28T22:39:14.358Z,1.30
2022-08-28T22:41:42.062Z,1.30
2022-08-28T22:44:09.921Z,1.33
2022-08-28T22:46:37.061Z,1.45
2022-08-28T22:49:04.579Z,1.20
2022-08-28T22:51:34.616Z,1.30
2022-08-28T22:54:01.826Z,1.15
2022-08-28T22:56:28.814Z,1.10
2022-08-28T22:58:55.904Z,1.50
2022-08-28T23:01:25.142Z,1.17
2022-08-28T23:03:52.835Z,1.13
2022-08-28T23:06:21.537Z,1.40
2022-08-28T23:08:48.913Z,1.35
2022-08-28T23:11:15.888Z,1.38
2022-08-28T23:13:42.852Z,1.20
2022-08-28T23:16:10.104Z,1.30
2022-08-28T23:19:06.065Z,1.10
2022-08-28T23:21:28.353Z,1.40
2022-08-28T23:23:56.126Z,1.25
2022-08-28T23:26:25.068Z,1.00
2022-08-28T23:28:52.674Z,1.20
2022-08-28T23:31:19.849Z,1.23
2022-08-28T23:33:48.621Z,1.13
2022-08-28T23:36:15.791Z,1.30
2022-08-28T23:38:44.280Z,1.40
2022-08-28T23:41:13.257Z,1.20
2022-08-28T23:43:40.410Z,1.30
2022-08-28T23:46:09.354Z,1.30
2022-08-28T23:48:40.607Z,1.25
2022-08-28T23:51:12.919Z,1.20
2022-08-28T23:53:41.872Z,1.10
2022-08-28T23:56:10.158Z,1.17
2022-08-28T23:58:37.169Z,1.20
